Los Angeles, California
Traffic Map
Current Weather Conditions
Los Angeles, California
Overcast
Overcast
12°
Feels Like: 12°
Wind Chill: 12° Ceiling: 7000
Heat Index: 12° Visibility: 10mi
Dew Point: Wind: 0mph
Humidity: 66% Direction: ° ()
Pressure: 30.19in Gusts: 0mph
Raw Report DataKCQT 081347Z AUTO 00000KT 10SM BKN070 OVC100 12/06 A3019 RMK AO2 SLP222 T01170056
Traffic Incident Summary
Active as of:
Severity:
Category:
InformationThere was an issue retrieving the traffic information for this location. Please try a different location or try again shortly.
Advertisements
Track Severe Weather on mobile